Terminal Aerodrome Forecast
Issued by NWS Knoxville/Tri Cities, TN

Home | Current Version | Previous Version | Text Only | Print | Product List | Glossary On
Versions: 1 2 3 4 5 6 7 8 9 10 11 12 13 14 15 16 17 18 19 20 21 22 23 24 25 26 27 28
000
FTUS44 KMRX 172336
TAFCHA
TAF
KCHA 172336Z 1800/1824 VRB05KT P6SM VCSH SCT050 BKN250
     FM180200 VRB02KT P6SM FEW060 SCT120
     FM180700 VRB02KT P6SM VCSH SCT050 BKN100
     FM181500 VRB04KT P6SM -SHRA SCT035 BKN100 PROB30 1815/1819 4SM
      TSRA BR BKN025CB
     FM181900 18006KT P6SM VCTS SCT040CB BKN120=

USA.gov is the U.S. government's official web portal to all federal, state and local government web resources and services.